createdAt,value
2023-01-07T00:02:23.636Z,0.67
2023-01-07T00:04:50.210Z,0.80
2023-01-07T00:07:16.786Z,0.80
2023-01-07T00:09:43.347Z,1.23
2023-01-07T00:12:09.895Z,0.70
2023-01-07T00:14:36.435Z,0.90
2023-01-07T00:17:04.397Z,0.97
2023-01-07T00:19:30.937Z,1.10
2023-01-07T00:21:57.497Z,0.90
2023-01-07T00:24:24.036Z,0.80
2023-01-07T00:26:50.627Z,0.90
2023-01-07T00:29:17.310Z,0.90
2023-01-07T00:31:43.916Z,0.70
2023-01-07T00:34:11.915Z,0.70
2023-01-07T00:36:41.382Z,0.60
2023-01-07T00:39:10.908Z,0.80
2023-01-07T00:41:38.013Z,0.70
2023-01-07T00:44:05.411Z,0.60
2023-01-07T00:46:32.306Z,0.87
2023-01-07T00:48:58.894Z,0.60
2023-01-07T00:51:26.865Z,0.63
2023-01-07T00:53:53.399Z,0.50
2023-01-07T00:56:19.940Z,0.60
2023-01-07T00:58:46.481Z,0.50
2023-01-07T01:01:13.986Z,0.70
2023-01-07T01:03:40.910Z,0.63
2023-01-07T01:06:10.739Z,0.80
2023-01-07T01:08:40.742Z,0.60
2023-01-07T01:11:09.201Z,0.50
2023-01-07T01:13:36.226Z,0.50
2023-01-07T01:16:08.044Z,0.50
2023-01-07T01:18:34.669Z,0.70
2023-01-07T01:21:03.639Z,0.60
2023-01-07T01:23:30.163Z,0.50
2023-01-07T01:26:04.627Z,0.50
2023-01-07T01:28:31.766Z,0.60
2023-01-07T01:30:58.399Z,0.50
2023-01-07T01:33:24.962Z,0.60
2023-01-07T01:35:51.537Z,0.60
2023-01-07T01:38:18.096Z,0.50
2023-01-07T01:40:44.688Z,0.50
2023-01-07T01:43:27.259Z,0.53
2023-01-07T01:45:54.316Z,0.70
2023-01-07T01:48:21.829Z,0.60
2023-01-07T01:50:50.144Z,0.50
2023-01-07T01:53:21.384Z,0.70
2023-01-07T01:55:52.804Z,0.83
2023-01-07T01:58:24.109Z,0.50
2023-01-07T02:00:52.251Z,0.70
2023-01-07T02:03:20.985Z,0.60
2023-01-07T02:05:47.827Z,0.53
2023-01-07T02:08:14.408Z,0.60
2023-01-07T02:10:41.164Z,0.50
2023-01-07T02:13:37.190Z,0.70
2023-01-07T02:16:13.626Z,0.60
2023-01-07T02:18:57.700Z,0.70
2023-01-07T02:21:37.211Z,0.57
2023-01-07T02:24:55.694Z,0.50
2023-01-07T02:27:32.665Z,0.60
2023-01-07T02:30:20.719Z,0.50
2023-01-07T02:33:21.837Z,0.53
2023-01-07T02:36:02.116Z,0.50
2023-01-07T02:38:36.629Z,0.40
2023-01-07T02:41:09.705Z,0.60
2023-01-07T02:43:42.137Z,0.57
2023-01-07T02:46:16.739Z,0.50
2023-01-07T02:48:46.202Z,0.50
2023-01-07T02:51:13.140Z,0.57
2023-01-07T02:53:41.308Z,0.80
2023-01-07T02:56:24.199Z,0.70
2023-01-07T02:59:10.037Z,0.60
2023-01-07T03:01:52.669Z,0.63
2023-01-07T03:04:39.634Z,0.60
2023-01-07T03:07:22.461Z,0.50
2023-01-07T03:09:56.437Z,0.70
2023-01-07T03:12:29.990Z,0.60
2023-01-07T03:15:02.355Z,0.50
2023-01-07T03:17:34.439Z,0.80
2023-01-07T03:20:03.926Z,0.67
2023-01-07T03:22:32.805Z,0.50
2023-01-07T03:25:00.193Z,0.63
2023-01-07T03:27:30.464Z,0.60
2023-01-07T03:29:57.334Z,0.53
2023-01-07T03:32:30.317Z,0.60
2023-01-07T03:34:57.472Z,0.60
2023-01-07T03:37:27.519Z,0.60
2023-01-07T03:39:54.238Z,0.60
2023-01-07T03:42:22.782Z,0.50
2023-01-07T03:44:49.381Z,0.50
2023-01-07T03:47:16.167Z,0.77
2023-01-07T03:49:42.728Z,0.70
2023-01-07T03:52:09.262Z,0.67
2023-01-07T03:54:37.238Z,0.60
2023-01-07T03:57:03.956Z,0.60
2023-01-07T03:59:30.516Z,0.60
2023-01-07T04:01:57.233Z,0.60
2023-01-07T04:04:23.892Z,0.80
2023-01-07T04:06:50.497Z,0.90
2023-01-07T04:09:17.031Z,0.70
2023-01-07T04:11:45.117Z,0.77
2023-01-07T04:14:11.906Z,0.60
2023-01-07T04:16:38.522Z,0.93
2023-01-07T04:19:05.110Z,1.07
2023-01-07T04:21:31.710Z,0.80
2023-01-07T04:23:58.263Z,0.70
2023-01-07T04:26:24.858Z,0.90
2023-01-07T04:28:52.753Z,0.60
2023-01-07T04:31:19.295Z,0.83
2023-01-07T04:33:45.817Z,0.67
2023-01-07T04:36:12.407Z,0.80
2023-01-07T04:38:39.166Z,0.90
2023-01-07T04:41:05.939Z,0.70
2023-01-07T04:43:32.551Z,0.80
2023-01-07T04:46:00.546Z,1.17
2023-01-07T04:48:27.191Z,0.80
2023-01-07T04:50:53.722Z,0.90
2023-01-07T04:53:20.384Z,0.70
2023-01-07T04:55:46.975Z,0.80
2023-01-07T04:58:13.597Z,0.87
2023-01-07T05:00:40.180Z,0.83
2023-01-07T05:03:08.134Z,0.80
2023-01-07T05:05:34.707Z,1.10
2023-01-07T05:08:01.295Z,0.60
2023-01-07T05:10:27.845Z,0.70
2023-01-07T05:12:54.365Z,0.80
2023-01-07T05:15:20.932Z,0.80
2023-01-07T05:17:47.449Z,0.80
2023-01-07T05:20:15.590Z,0.80
2023-01-07T05:22:42.118Z,0.77
2023-01-07T05:25:09.753Z,0.70
2023-01-07T05:27:36.313Z,0.73
2023-01-07T05:30:03.344Z,0.90
2023-01-07T05:32:29.928Z,0.80
2023-01-07T05:34:57.314Z,0.80
2023-01-07T05:37:25.269Z,0.70
2023-01-07T05:39:51.805Z,0.80
2023-01-07T05:42:18.339Z,0.80
2023-01-07T05:44:44.885Z,0.90
2023-01-07T05:47:11.441Z,0.80
2023-01-07T05:49:37.981Z,0.80
2023-01-07T05:52:04.904Z,0.80
2023-01-07T05:54:32.842Z,0.70
2023-01-07T05:56:59.427Z,0.87
2023-01-07T05:59:26.007Z,0.77
2023-01-07T06:01:52.626Z,0.60
2023-01-07T06:04:19.190Z,0.77
2023-01-07T06:06:45.763Z,0.60
2023-01-07T06:09:12.417Z,0.90
2023-01-07T06:11:40.346Z,0.80
2023-01-07T06:14:06.922Z,1.00
2023-01-07T06:16:33.461Z,0.60
2023-01-07T06:19:00.051Z,0.73
2023-01-07T06:21:26.618Z,0.80
2023-01-07T06:23:53.228Z,0.73
2023-01-07T06:26:19.844Z,0.90
2023-01-07T06:28:47.834Z,0.90
2023-01-07T06:31:14.377Z,0.73
2023-01-07T06:33:40.945Z,1.00
2023-01-07T06:36:08.347Z,1.40
2023-01-07T06:38:35.076Z,1.17
2023-01-07T06:41:01.606Z,1.10
2023-01-07T06:43:28.224Z,0.90
2023-01-07T06:45:56.379Z,0.90
2023-01-07T06:48:23.013Z,1.03
2023-01-07T06:50:49.576Z,1.40
2023-01-07T06:53:16.621Z,1.30
2023-01-07T06:55:47.738Z,1.40
2023-01-07T06:58:14.293Z,1.37
2023-01-07T07:00:40.831Z,1.50
2023-01-07T07:03:08.904Z,1.40
2023-01-07T07:05:35.606Z,1.37
2023-01-07T07:08:02.168Z,1.20
2023-01-07T07:10:28.885Z,1.30
2023-01-07T07:12:55.444Z,1.33
2023-01-07T07:15:22.082Z,1.10
2023-01-07T07:17:48.655Z,1.27
2023-01-07T07:20:16.644Z,1.17
2023-01-07T07:22:45.132Z,1.20
2023-01-07T07:25:11.728Z,1.10
2023-01-07T07:27:38.326Z,1.30
2023-01-07T07:30:06.231Z,1.30
2023-01-07T07:32:32.759Z,1.20
2023-01-07T07:34:59.286Z,1.20
2023-01-07T07:37:27.249Z,1.00
2023-01-07T07:39:53.826Z,1.10
2023-01-07T07:42:20.411Z,1.10
2023-01-07T07:44:46.937Z,1.27
2023-01-07T07:47:13.486Z,1.30
2023-01-07T07:49:40.051Z,1.30
2023-01-07T07:52:06.591Z,1.10
2023-01-07T07:54:34.565Z,1.20
2023-01-07T07:57:01.385Z,1.47
2023-01-07T07:59:27.949Z,1.23
2023-01-07T08:01:54.539Z,1.30
2023-01-07T08:04:21.142Z,1.20
2023-01-07T08:06:47.721Z,1.30
2023-01-07T08:09:14.327Z,1.30
2023-01-07T08:11:42.315Z,1.00
2023-01-07T08:14:10.013Z,1.20
2023-01-07T08:16:36.623Z,1.40
2023-01-07T08:19:03.229Z,1.30
2023-01-07T08:21:29.772Z,1.30
2023-01-07T08:23:56.292Z,1.50
2023-01-07T08:26:22.819Z,1.20
2023-01-07T08:28:51.193Z,1.30
2023-01-07T08:31:17.801Z,1.00
2023-01-07T08:33:44.364Z,1.40
2023-01-07T08:36:22.082Z,1.40
2023-01-07T08:38:51.052Z,1.27
2023-01-07T08:41:17.645Z,1.60
2023-01-07T08:43:44.206Z,1.40
2023-01-07T08:46:12.200Z,1.40
2023-01-07T08:48:38.765Z,1.60
2023-01-07T08:51:05.983Z,1.43
2023-01-07T08:53:32.841Z,1.30
2023-01-07T08:55:59.432Z,1.50
2023-01-07T08:58:26.021Z,1.70
2023-01-07T09:00:52.999Z,1.60
2023-01-07T09:03:21.071Z,1.77
2023-01-07T09:05:47.647Z,1.40
2023-01-07T09:08:14.460Z,1.50
2023-01-07T09:10:41.059Z,1.30
2023-01-07T09:13:07.694Z,1.40
2023-01-07T09:15:34.275Z,1.50
2023-01-07T09:18:00.953Z,1.67
2023-01-07T09:20:28.972Z,2.00
2023-01-07T09:22:55.615Z,2.80
2023-01-07T09:25:22.338Z,2.40
2023-01-07T09:27:48.945Z,2.57
2023-01-07T09:30:16.173Z,2.40
2023-01-07T09:32:43.308Z,1.63
2023-01-07T09:35:11.011Z,1.67
2023-01-07T09:37:38.983Z,1.50
2023-01-07T09:40:08.620Z,1.30
2023-01-07T09:42:41.822Z,1.40
2023-01-07T09:45:15.543Z,1.77
2023-01-07T09:47:45.741Z,1.33
2023-01-07T09:50:19.132Z,1.97
2023-01-07T09:52:50.410Z,1.57
2023-01-07T09:55:22.499Z,2.27
2023-01-07T09:57:49.584Z,1.77
2023-01-07T10:00:18.982Z,1.70
2023-01-07T10:02:58.837Z,1.80
2023-01-07T10:05:36.789Z,1.60
2023-01-07T10:08:29.370Z,1.60
2023-01-07T10:11:07.499Z,1.70
2023-01-07T10:13:44.524Z,1.53
2023-01-07T10:16:19.541Z,1.53
2023-01-07T10:18:58.054Z,1.20
2023-01-07T10:21:38.788Z,1.20
2023-01-07T10:24:15.895Z,1.40
2023-01-07T10:26:45.745Z,1.33
2023-01-07T10:29:17.080Z,1.30
2023-01-07T10:31:45.468Z,1.30
2023-01-07T10:34:15.386Z,1.20
2023-01-07T10:36:55.642Z,1.40
2023-01-07T10:39:33.397Z,1.40
2023-01-07T10:42:04.892Z,1.60
2023-01-07T10:44:54.360Z,1.80
2023-01-07T10:47:34.509Z,1.50
2023-01-07T10:50:21.059Z,1.57
2023-01-07T10:52:57.508Z,1.83
2023-01-07T10:55:43.167Z,1.77
2023-01-07T10:58:11.148Z,1.70
2023-01-07T11:00:39.024Z,1.60
2023-01-07T11:03:16.311Z,1.93
2023-01-07T11:05:43.304Z,1.80
2023-01-07T11:08:15.822Z,1.50
2023-01-07T11:10:43.823Z,2.00
2023-01-07T11:13:14.823Z,1.83
2023-01-07T11:15:45.047Z,1.43
2023-01-07T11:18:18.376Z,1.57
2023-01-07T11:20:46.986Z,1.77
2023-01-07T11:23:31.951Z,1.67
2023-01-07T11:26:09.964Z,1.90
2023-01-07T11:28:37.650Z,1.70
2023-01-07T11:31:04.874Z,1.50
2023-01-07T11:34:03.010Z,1.40
2023-01-07T11:36:39.167Z,1.43
2023-01-07T11:39:09.821Z,1.37
2023-01-07T11:41:40.037Z,1.30
2023-01-07T11:44:15.503Z,1.23
2023-01-07T11:46:44.182Z,1.10
2023-01-07T11:49:22.697Z,1.27
2023-01-07T11:51:49.822Z,1.27
2023-01-07T11:54:20.749Z,1.43
2023-01-07T11:56:48.838Z,1.20
2023-01-07T11:59:26.261Z,0.97
2023-01-07T12:01:54.464Z,1.00
2023-01-07T12:04:23.309Z,1.03
2023-01-07T12:06:51.983Z,1.17
2023-01-07T12:09:37.133Z,1.20
2023-01-07T12:12:12.670Z,1.10
2023-01-07T12:14:39.634Z,1.20
2023-01-07T12:17:09.651Z,1.00
2023-01-07T12:20:03.909Z,1.20
2023-01-07T12:22:41.156Z,0.90
2023-01-07T12:25:24.053Z,1.23
2023-01-07T12:28:00.507Z,1.50
2023-01-07T12:30:43.152Z,1.10
2023-01-07T12:33:21.548Z,1.30
2023-01-07T12:35:48.357Z,1.50
2023-01-07T12:38:20.496Z,1.40
2023-01-07T12:40:51.476Z,1.20
2023-01-07T12:43:25.636Z,1.23
2023-01-07T12:45:55.391Z,1.40
2023-01-07T12:48:28.827Z,1.27
2023-01-07T12:50:59.513Z,1.20
2023-01-07T12:53:34.215Z,1.40
2023-01-07T12:56:05.698Z,1.33
2023-01-07T12:58:45.650Z,1.60
2023-01-07T13:01:20.033Z,1.60
2023-01-07T13:03:52.942Z,1.13
2023-01-07T13:06:28.432Z,1.30
2023-01-07T13:09:01.736Z,1.50
2023-01-07T13:11:34.435Z,1.50
2023-01-07T13:14:03.194Z,1.50
2023-01-07T13:16:29.759Z,1.57
2023-01-07T13:18:56.313Z,1.67
2023-01-07T13:21:23.399Z,1.90
2023-01-07T13:24:56.199Z,1.73
2023-01-07T13:27:23.555Z,1.50
2023-01-07T13:30:05.262Z,1.67
2023-01-07T13:32:47.236Z,1.27
2023-01-07T13:35:28.360Z,1.70
2023-01-07T13:38:30.071Z,1.40
2023-01-07T13:41:19.118Z,1.47
2023-01-07T13:44:00.184Z,1.80
2023-01-07T13:46:32.672Z,1.60
2023-01-07T13:48:59.353Z,2.30
2023-01-07T13:51:29.123Z,9.00
2023-01-07T13:53:56.071Z,6.40
2023-01-07T13:56:32.685Z,4.63
2023-01-07T13:58:59.325Z,2.87
2023-01-07T14:01:26.974Z,3.83
2023-01-07T14:03:56.142Z,8.13
2023-01-07T14:06:44.919Z,9.30
2023-01-07T14:09:39.197Z,15.17
2023-01-07T14:12:22.967Z,13.00
2023-01-07T14:14:57.701Z,23.90
2023-01-07T14:17:32.161Z,25.80
2023-01-07T14:20:06.979Z,25.03
2023-01-07T14:22:44.897Z,23.00
2023-01-07T14:25:52.109Z,12.40
2023-01-07T14:28:43.598Z,6.17
2023-01-07T14:31:20.829Z,3.20
2023-01-07T14:33:50.406Z,2.20
2023-01-07T14:36:18.575Z,1.73
2023-01-07T14:38:47.181Z,2.03
2023-01-07T14:41:15.502Z,1.83
2023-01-07T14:43:58.986Z,2.30
2023-01-07T14:46:53.022Z,2.20
2023-01-07T14:50:01.231Z,6.00
2023-01-07T14:53:04.111Z,2.53
2023-01-07T14:55:54.028Z,1.80
2023-01-07T14:58:39.666Z,1.77
2023-01-07T15:01:37.990Z,1.50
2023-01-07T15:04:45.825Z,1.80
2023-01-07T15:07:17.039Z,1.57
2023-01-07T15:09:50.742Z,1.80
2023-01-07T15:12:25.449Z,1.60
2023-01-07T15:15:02.651Z,1.80
2023-01-07T15:17:29.813Z,2.07
2023-01-07T15:19:56.978Z,1.80
2023-01-07T15:22:57.742Z,1.80
2023-01-07T15:25:35.129Z,1.50
2023-01-07T15:28:11.666Z,1.57
2023-01-07T15:30:47.733Z,2.08
2023-01-07T15:33:41.678Z,1.77
2023-01-07T15:36:12.654Z,1.50
2023-01-07T15:38:42.539Z,1.60
2023-01-07T15:41:24.068Z,1.40
2023-01-07T15:43:52.552Z,1.40
2023-01-07T15:46:21.010Z,1.27
2023-01-07T15:49:16.409Z,1.20
2023-01-07T15:51:44.632Z,1.80
2023-01-07T15:54:32.155Z,1.70
2023-01-07T15:57:11.153Z,2.00
2023-01-07T15:59:43.847Z,1.90
2023-01-07T16:02:19.959Z,1.93
2023-01-07T16:04:47.314Z,2.17
2023-01-07T16:07:21.811Z,3.17
2023-01-07T16:09:48.642Z,3.40
2023-01-07T16:12:29.368Z,2.73
2023-01-07T16:14:57.365Z,3.37
2023-01-07T16:17:24.099Z,4.77
2023-01-07T16:19:50.690Z,5.83
2023-01-07T16:22:21.067Z,4.97
2023-01-07T16:24:51.666Z,8.57
2023-01-07T16:27:25.771Z,6.30
2023-01-07T16:29:57.149Z,6.17
2023-01-07T16:32:26.642Z,4.67
2023-01-07T16:34:57.700Z,6.50
2023-01-07T16:37:25.040Z,9.13
2023-01-07T16:39:52.636Z,11.73
2023-01-07T16:42:21.274Z,13.17
2023-01-07T16:44:59.969Z,13.40
2023-01-07T16:47:30.137Z,13.97
2023-01-07T16:49:57.995Z,11.63
2023-01-07T16:52:31.255Z,8.53
2023-01-07T16:54:57.812Z,6.43
2023-01-07T16:57:30.010Z,4.40
2023-01-07T16:59:58.573Z,3.87
2023-01-07T17:02:31.211Z,3.07
2023-01-07T17:05:16.970Z,3.00
2023-01-07T17:07:46.877Z,2.37
2023-01-07T17:10:19.987Z,2.10
2023-01-07T17:12:57.535Z,1.93
2023-01-07T17:15:32.958Z,2.00
2023-01-07T17:18:28.702Z,1.87
2023-01-07T17:20:57.130Z,1.80
2023-01-07T17:23:41.375Z,2.00
2023-01-07T17:26:18.537Z,2.30
2023-01-07T17:28:48.004Z,2.80
2023-01-07T17:31:15.221Z,2.97
2023-01-07T17:33:43.494Z,3.20
2023-01-07T17:36:15.524Z,4.70
2023-01-07T17:38:42.096Z,7.73
2023-01-07T17:41:11.438Z,7.30
2023-01-07T17:43:38.030Z,5.23
2023-01-07T17:46:06.182Z,5.63
2023-01-07T17:48:33.329Z,5.00
2023-01-07T17:51:02.877Z,5.23
2023-01-07T17:53:31.849Z,4.67
2023-01-07T17:56:00.245Z,4.57
2023-01-07T17:58:30.015Z,4.60
2023-01-07T18:00:57.809Z,4.50
2023-01-07T18:03:24.772Z,4.67
2023-01-07T18:05:51.464Z,4.90
2023-01-07T18:08:19.420Z,5.87
2023-01-07T18:10:46.458Z,5.97
2023-01-07T18:13:13.024Z,6.90
2023-01-07T18:15:39.610Z,14.97
2023-01-07T18:18:06.155Z,18.07
2023-01-07T18:20:32.716Z,33.00
2023-01-07T18:22:59.233Z,35.90
2023-01-07T18:25:27.177Z,26.90
2023-01-07T18:27:53.734Z,27.63
2023-01-07T18:30:21.995Z,21.27
2023-01-07T18:32:48.891Z,14.27
2023-01-07T18:35:15.500Z,9.90
2023-01-07T18:37:42.105Z,6.47
2023-01-07T18:40:09.937Z,5.23
2023-01-07T18:42:37.886Z,4.20
2023-01-07T18:45:06.127Z,6.53
2023-01-07T18:47:32.882Z,4.63
2023-01-07T18:49:59.432Z,4.67
2023-01-07T18:52:26.063Z,3.83
2023-01-07T18:54:52.586Z,3.80
2023-01-07T18:57:19.208Z,4.37
2023-01-07T18:59:47.212Z,4.53
2023-01-07T19:02:15.490Z,4.23
2023-01-07T19:04:42.128Z,3.60
2023-01-07T19:07:08.958Z,4.17
2023-01-07T19:09:35.581Z,4.53
2023-01-07T19:12:02.263Z,5.70
2023-01-07T19:14:28.778Z,5.97
2023-01-07T19:16:56.743Z,4.77
2023-01-07T19:19:23.448Z,5.53
2023-01-07T19:21:50.382Z,5.57
2023-01-07T19:24:19.035Z,6.27
2023-01-07T19:26:45.576Z,6.40
2023-01-07T19:29:14.027Z,6.13
2023-01-07T19:31:41.051Z,5.47
2023-01-07T19:34:09.276Z,5.07
2023-01-07T19:36:35.823Z,5.67
2023-01-07T19:39:02.438Z,6.43
2023-01-07T19:41:29.023Z,6.00
2023-01-07T19:43:58.608Z,4.77
2023-01-07T19:46:25.208Z,5.00
2023-01-07T19:48:52.175Z,6.00
2023-01-07T19:51:20.233Z,6.70
2023-01-07T19:53:46.777Z,5.63
2023-01-07T19:56:13.801Z,4.53
2023-01-07T19:58:40.925Z,4.37
2023-01-07T20:01:10.205Z,4.13
2023-01-07T20:03:37.580Z,4.43
2023-01-07T20:06:06.673Z,3.97
2023-01-07T20:08:34.665Z,4.03
2023-01-07T20:11:01.263Z,3.70
2023-01-07T20:13:29.377Z,3.40
2023-01-07T20:15:56.241Z,4.03
2023-01-07T20:18:23.069Z,4.20
2023-01-07T20:20:56.377Z,4.13
2023-01-07T20:23:22.988Z,3.87
2023-01-07T20:25:50.987Z,3.53
2023-01-07T20:28:17.919Z,3.40
2023-01-07T20:30:44.517Z,3.70
2023-01-07T20:33:11.707Z,3.60
2023-01-07T20:35:38.320Z,3.73
2023-01-07T20:38:05.026Z,3.77
2023-01-07T20:40:31.586Z,4.03
2023-01-07T20:42:59.499Z,3.83
2023-01-07T20:45:26.062Z,3.77
2023-01-07T20:47:52.639Z,3.80
2023-01-07T20:50:19.257Z,3.50
2023-01-07T20:52:45.841Z,3.57
2023-01-07T20:55:12.402Z,3.37
2023-01-07T20:57:39.126Z,3.33
2023-01-07T21:00:08.475Z,3.40
2023-01-07T21:02:35.259Z,3.27
2023-01-07T21:05:02.015Z,3.53
2023-01-07T21:07:28.665Z,3.07
2023-01-07T21:09:55.241Z,3.43
2023-01-07T21:12:21.769Z,3.40
2023-01-07T21:14:48.317Z,3.50
2023-01-07T21:17:16.263Z,3.50
2023-01-07T21:19:42.830Z,3.80
2023-01-07T21:22:09.415Z,3.73
2023-01-07T21:24:36.109Z,3.70
2023-01-07T21:27:02.956Z,3.83
2023-01-07T21:29:29.532Z,3.33
2023-01-07T21:31:56.136Z,3.40
2023-01-07T21:34:24.265Z,3.20
2023-01-07T21:36:50.817Z,3.60
2023-01-07T21:39:17.403Z,3.60
2023-01-07T21:41:43.972Z,4.10
2023-01-07T21:44:10.891Z,3.80
2023-01-07T21:46:37.479Z,3.63
2023-01-07T21:49:04.079Z,3.40
2023-01-07T21:51:32.045Z,3.10
2023-01-07T21:53:59.091Z,2.87
2023-01-07T21:56:28.227Z,3.50
2023-01-07T21:58:54.786Z,2.97
2023-01-07T22:01:21.555Z,3.87
2023-01-07T22:03:49.329Z,3.70
2023-01-07T22:06:19.032Z,3.67
2023-01-07T22:08:47.102Z,3.57
2023-01-07T22:11:14.469Z,3.00
2023-01-07T22:13:41.047Z,3.40
2023-01-07T22:16:08.644Z,3.20
2023-01-07T22:18:35.442Z,3.60
2023-01-07T22:21:02.361Z,3.13
2023-01-07T22:23:28.964Z,4.17
2023-01-07T22:26:02.426Z,3.67
2023-01-07T22:28:31.866Z,3.10
2023-01-07T22:31:02.168Z,2.80
2023-01-07T22:33:28.715Z,3.40
2023-01-07T22:35:55.401Z,3.47
2023-01-07T22:38:24.570Z,3.07
2023-01-07T22:40:51.393Z,3.63
2023-01-07T22:43:21.488Z,4.00
2023-01-07T22:45:51.807Z,6.93
2023-01-07T22:48:22.077Z,8.50
2023-01-07T22:50:49.004Z,5.50
2023-01-07T22:53:15.581Z,5.93
2023-01-07T22:55:42.178Z,4.20
2023-01-07T22:58:08.726Z,3.63
2023-01-07T23:00:41.234Z,2.90
2023-01-07T23:03:07.852Z,3.23
2023-01-07T23:05:34.507Z,3.13
2023-01-07T23:08:01.048Z,3.20
2023-01-07T23:10:27.617Z,2.80
2023-01-07T23:12:54.178Z,2.80
2023-01-07T23:15:20.699Z,3.50
2023-01-07T23:17:48.620Z,3.37
2023-01-07T23:20:15.186Z,2.70
2023-01-07T23:22:41.756Z,3.13
2023-01-07T23:25:08.719Z,3.60
2023-01-07T23:27:35.266Z,3.67
2023-01-07T23:30:01.789Z,4.13
2023-01-07T23:32:28.346Z,4.53
2023-01-07T23:34:56.281Z,3.77
2023-01-07T23:37:22.841Z,5.60
2023-01-07T23:39:49.355Z,5.30
2023-01-07T23:42:15.939Z,4.50
2023-01-07T23:44:42.507Z,6.63
2023-01-07T23:47:09.043Z,9.43
2023-01-07T23:49:35.632Z,5.47
2023-01-07T23:52:03.937Z,4.10
2023-01-07T23:54:30.520Z,3.10
2023-01-07T23:56:57.078Z,3.17
2023-01-07T23:59:23.895Z,2.90
